Maran Canopus — SXUQ — position and weather

sailwx.info

Track history (hours):
 
Tides and Currents Weather Stations Pressure Air Temp Water Temp Dewpoint Dewpoint Depression Visibility Wind Speed Wind Dir Waves Ship Positions

Maran Canopus

Last reported at 2014-Jul-15 23:05 UTC. Time now 2014-Jul-23 01:46 UTC.
Position N 29°34' E 123°54'.

Length 333 m; draft 20.4 m.

Type: Tanker. MMSI: 240677000.

Date/timePositionNaut miles runAvg speedWind from/ knotsBaromVisibWave heightAir tempDewpointWater temp
2014-Jul-15 23:05N 29°34' E 123°54'31713.4
2014-Jul-14 23:25N 34°45' E 122°41'11813.0
2014-Jul-14 14:18N 35°57' E 120°46'911.4
2014-Jul-14 13:28N 35°58' E 120°35'1010.6
2014-Jul-14 12:33N 36°01' E 120°23'7 0.2
2014-Jul-13 03:28N 36°03' E 120°15'  
2014-Jul-10 05:30N 36°02' E 120°16'4 4.1
2014-Jul-10 04:34N 36°01' E 120°20'0 0.4
2014-Jul-10 03:30N 36°01' E 120°21'0 0.1
2014-Jul-10 02:18N 36°01' E 120°21'0 0.2
2014-Jul-10 01:33N 36°01' E 120°21'0 0.2
2014-Jul-10 00:18N 36°00' E 120°21'0 0.0
2014-Jul-09 23:18N 36°00' E 120°21'0 0.1
2014-Jul-09 22:30N 36°01' E 120°21'0 0.2
2014-Jul-09 21:30N 36°00' E 120°21'0 0.1
2014-Jul-09 20:30N 36°00' E 120°21'0 0.0
2014-Jul-09 19:31N 36°00' E 120°21'0 0.0
2014-Jul-09 18:30N 36°00' E 120°21'0 0.1
2014-Jul-09 17:30N 36°00' E 120°21'0 0.1
2014-Jul-09 16:30N 36°01' E 120°21'0 0.0
2014-Jul-09 15:30N 36°01' E 120°21'0 0.1
2014-Jul-09 14:30N 36°01' E 120°21'0 0.0
2014-Jul-09 13:30N 36°01' E 120°21'0 0.1
2014-Jul-09 12:30N 36°01' E 120°21'0 0.2
2014-Jul-09 11:33N 36°01' E 120°21'0 0.1
2014-Jul-09 10:30N 36°00' E 120°21'0 0.0
2014-Jul-09 09:33N 36°00' E 120°21'0 0.1
2014-Jul-09 08:18N 36°00' E 120°21'0 0.1
2014-Jul-09 07:30N 36°00' E 120°21'0 0.1
2014-Jul-09 06:33N 36°00' E 120°21'5 5.1
2014-Jul-09 05:33N 35°60' E 120°27'8 7.9
2014-Jul-09 04:33N 35°58' E 120°37'6 6.2
2014-Jul-09 03:33N 35°57' E 120°44'38810.4
2014-Jul-07 14:03N 30°05' E 124°01'  
Track history (hours):
 
Tides and Currents Weather Stations Pressure Air Temp Water Temp Dewpoint Dewpoint Depression Visibility Wind Speed Wind Dir Waves Ship Positions

Maran Canopus

Last reported at 2014-Jul-15 23:05 UTC. Time now 2014-Jul-23 01:46 UTC.
Position N 29°34' E 123°54'.

Length 333 m; draft 20.4 m.

Type: Tanker. MMSI: 240677000.

Date/timePositionNaut miles runAvg speedWind from/ knotsBaromVisibWave heightAir tempDewpointWater temp
2014-Jul-15 23:05N 29°34' E 123°54'31713.4
2014-Jul-14 23:25N 34°45' E 122°41'11813.0
2014-Jul-14 14:18N 35°57' E 120°46'911.4
2014-Jul-14 13:28N 35°58' E 120°35'1010.6
2014-Jul-14 12:33N 36°01' E 120°23'7 0.2
2014-Jul-13 03:28N 36°03' E 120°15'  
2014-Jul-10 05:30N 36°02' E 120°16'4 4.1
2014-Jul-10 04:34N 36°01' E 120°20'0 0.4
2014-Jul-10 03:30N 36°01' E 120°21'0 0.1
2014-Jul-10 02:18N 36°01' E 120°21'0 0.2
2014-Jul-10 01:33N 36°01' E 120°21'0 0.2
2014-Jul-10 00:18N 36°00' E 120°21'0 0.0
2014-Jul-09 23:18N 36°00' E 120°21'0 0.1
2014-Jul-09 22:30N 36°01' E 120°21'0 0.2
2014-Jul-09 21:30N 36°00' E 120°21'0 0.1
2014-Jul-09 20:30N 36°00' E 120°21'0 0.0
2014-Jul-09 19:31N 36°00' E 120°21'0 0.0
2014-Jul-09 18:30N 36°00' E 120°21'0 0.1
2014-Jul-09 17:30N 36°00' E 120°21'0 0.1
2014-Jul-09 16:30N 36°01' E 120°21'0 0.0
2014-Jul-09 15:30N 36°01' E 120°21'0 0.1
2014-Jul-09 14:30N 36°01' E 120°21'0 0.0
2014-Jul-09 13:30N 36°01' E 120°21'0 0.1
2014-Jul-09 12:30N 36°01' E 120°21'0 0.2
2014-Jul-09 11:33N 36°01' E 120°21'0 0.1
2014-Jul-09 10:30N 36°00' E 120°21'0 0.0
2014-Jul-09 09:33N 36°00' E 120°21'0 0.1
2014-Jul-09 08:18N 36°00' E 120°21'0 0.1
2014-Jul-09 07:30N 36°00' E 120°21'0 0.1
2014-Jul-09 06:33N 36°00' E 120°21'5 5.1
2014-Jul-09 05:33N 35°60' E 120°27'8 7.9
2014-Jul-09 04:33N 35°58' E 120°37'6 6.2
2014-Jul-09 03:33N 35°57' E 120°44'38810.4
2014-Jul-07 14:03N 30°05' E 124°01'  

Dump ship's entire track history